sensor_id;sensor_type;location;lat;lon;timestamp;pressure;altitude;pressure_sealevel;temperature;humidity
76337;BME280;65157;50.082;18.178;2024-03-06T00:01:33;99454.69;;;3.05;84.45
76337;BME280;65157;50.082;18.178;2024-03-06T00:04:01;99463.08;;;3.04;84.72
76337;BME280;65157;50.082;18.178;2024-03-06T00:06:28;99462.59;;;3.01;84.69
76337;BME280;65157;50.082;18.178;2024-03-06T00:08:54;99465.03;;;2.99;84.87
76337;BME280;65157;50.082;18.178;2024-03-06T00:11:21;99463.30;;;2.97;85.08
76337;BME280;65157;50.082;18.178;2024-03-06T00:13:47;99461.91;;;2.97;85.23
76337;BME280;65157;50.082;18.178;2024-03-06T00:16:14;99461.58;;;2.95;85.41
76337;BME280;65157;50.082;18.178;2024-03-06T00:18:41;99464.03;;;2.94;85.36
76337;BME280;65157;50.082;18.178;2024-03-06T00:21:07;99464.40;;;2.92;85.32
76337;BME280;65157;50.082;18.178;2024-03-06T00:23:34;99469.81;;;2.90;85.65
76337;BME280;65157;50.082;18.178;2024-03-06T00:26:00;99475.39;;;2.90;85.63
76337;BME280;65157;50.082;18.178;2024-03-06T00:28:28;99476.98;;;2.89;85.60
76337;BME280;65157;50.082;18.178;2024-03-06T00:30:55;99481.33;;;2.89;85.39
76337;BME280;65157;50.082;18.178;2024-03-06T00:33:23;99482.58;;;2.87;85.44
76337;BME280;65157;50.082;18.178;2024-03-06T00:35:50;99486.40;;;2.87;85.78
76337;BME280;65157;50.082;18.178;2024-03-06T00:38:16;99488.33;;;2.86;85.97
76337;BME280;65157;50.082;18.178;2024-03-06T00:40:43;99489.38;;;2.85;85.92
76337;BME280;65157;50.082;18.178;2024-03-06T00:43:09;99492.52;;;2.84;85.94
76337;BME280;65157;50.082;18.178;2024-03-06T00:45:36;99497.05;;;2.84;86.12
76337;BME280;65157;50.082;18.178;2024-03-06T00:48:03;99495.66;;;2.82;86.06
76337;BME280;65157;50.082;18.178;2024-03-06T00:50:29;99501.23;;;2.83;86.07
76337;BME280;65157;50.082;18.178;2024-03-06T00:52:56;99504.20;;;2.84;86.23
76337;BME280;65157;50.082;18.178;2024-03-06T00:55:22;99504.88;;;2.84;86.22
76337;BME280;65157;50.082;18.178;2024-03-06T00:57:49;99502.30;;;2.82;86.30
76337;BME280;65157;50.082;18.178;2024-03-06T01:00:16;99506.80;;;2.85;86.44
76337;BME280;65157;50.082;18.178;2024-03-06T01:02:43;99506.13;;;2.83;86.12
76337;BME280;65157;50.082;18.178;2024-03-06T01:05:09;99505.95;;;2.84;86.38
76337;BME280;65157;50.082;18.178;2024-03-06T01:07:39;99506.45;;;2.85;86.35
76337;BME280;65157;50.082;18.178;2024-03-06T01:10:06;99503.84;;;2.85;86.37
76337;BME280;65157;50.082;18.178;2024-03-06T01:12:33;99502.09;;;2.86;86.36
76337;BME280;65157;50.082;18.178;2024-03-06T01:15:00;99504.20;;;2.86;86.54
76337;BME280;65157;50.082;18.178;2024-03-06T01:17:27;99505.23;;;2.86;86.79
76337;BME280;65157;50.082;18.178;2024-03-06T01:19:53;99508.72;;;2.87;86.75
76337;BME280;65157;50.082;18.178;2024-03-06T01:22:20;99511.48;;;2.88;86.86
76337;BME280;65157;50.082;18.178;2024-03-06T01:24:46;99513.92;;;2.88;86.79
76337;BME280;65157;50.082;18.178;2024-03-06T01:27:13;99519.50;;;2.89;86.93
76337;BME280;65157;50.082;18.178;2024-03-06T01:29:39;99512.55;;;2.89;86.95
76337;BME280;65157;50.082;18.178;2024-03-06T01:32:06;99515.83;;;2.91;86.84
76337;BME280;65157;50.082;18.178;2024-03-06T01:34:34;99514.77;;;2.91;86.97
76337;BME280;65157;50.082;18.178;2024-03-06T01:37:00;99513.03;;;2.92;87.03
76337;BME280;65157;50.082;18.178;2024-03-06T01:39:27;99517.73;;;2.93;86.96
76337;BME280;65157;50.082;18.178;2024-03-06T01:41:53;99519.63;;;2.94;87.22
76337;BME280;65157;50.082;18.178;2024-03-06T01:44:20;99522.08;;;2.95;87.27
76337;BME280;65157;50.082;18.178;2024-03-06T01:46:47;99520.67;;;2.97;87.22
76337;BME280;65157;50.082;18.178;2024-03-06T01:49:15;99517.54;;;2.96;87.22
76337;BME280;65157;50.082;18.178;2024-03-06T01:51:49;99520.67;;;2.98;87.34
76337;BME280;65157;50.082;18.178;2024-03-06T01:54:17;99519.95;;;2.99;87.16
76337;BME280;65157;50.082;18.178;2024-03-06T01:56:46;99523.08;;;2.99;87.41
76337;BME280;65157;50.082;18.178;2024-03-06T01:59:13;99524.83;;;2.99;87.34
76337;BME280;65157;50.082;18.178;2024-03-06T02:01:41;99525.88;;;3.01;87.52
76337;BME280;65157;50.082;18.178;2024-03-06T02:04:09;99524.50;;;2.98;87.66
76337;BME280;65157;50.082;18.178;2024-03-06T02:06:36;99529.18;;;3.02;87.51
76337;BME280;65157;50.082;18.178;2024-03-06T02:09:02;99525.52;;;3.03;87.60
76337;BME280;65157;50.082;18.178;2024-03-06T02:11:29;99521.66;;;3.04;87.65
76337;BME280;65157;50.082;18.178;2024-03-06T02:13:56;99525.48;;;3.05;87.70
76337;BME280;65157;50.082;18.178;2024-03-06T02:16:22;99518.70;;;3.04;87.54
76337;BME280;65157;50.082;18.178;2024-03-06T02:18:53;99521.79;;;3.08;87.70
76337;BME280;65157;50.082;18.178;2024-03-06T02:21:24;99520.92;;;3.08;87.78
76337;BME280;65157;50.082;18.178;2024-03-06T02:23:51;99524.41;;;3.08;87.67
76337;BME280;65157;50.082;18.178;2024-03-06T02:26:18;99522.50;;;3.09;87.69
76337;BME280;65157;50.082;18.178;2024-03-06T02:28:49;99520.92;;;3.10;87.63
76337;BME280;65157;50.082;18.178;2024-03-06T02:31:16;99520.56;;;3.11;87.65
76337;BME280;65157;50.082;18.178;2024-03-06T02:33:49;99521.59;;;3.11;87.50
76337;BME280;65157;50.082;18.178;2024-03-06T02:36:17;99523.71;;;3.10;87.75
76337;BME280;65157;50.082;18.178;2024-03-06T02:38:44;99524.05;;;3.11;87.74
76337;BME280;65157;50.082;18.178;2024-03-06T02:41:11;99518.11;;;3.12;87.71
76337;BME280;65157;50.082;18.178;2024-03-06T02:43:38;99516.89;;;3.12;87.51
76337;BME280;65157;50.082;18.178;2024-03-06T02:46:05;99512.70;;;3.11;87.57
76337;BME280;65157;50.082;18.178;2024-03-06T02:48:31;99513.59;;;3.10;87.62
76337;BME280;65157;50.082;18.178;2024-03-06T02:50:58;99513.06;;;3.11;87.74
76337;BME280;65157;50.082;18.178;2024-03-06T02:53:25;99516.38;;;3.11;87.63
76337;BME280;65157;50.082;18.178;2024-03-06T02:55:51;99517.95;;;3.11;87.69
76337;BME280;65157;50.082;18.178;2024-03-06T02:58:18;99514.30;;;3.10;87.63
76337;BME280;65157;50.082;18.178;2024-03-06T03:00:44;99511.16;;;3.09;87.58
76337;BME280;65157;50.082;18.178;2024-03-06T03:03:11;99509.58;;;3.09;87.43
76337;BME280;65157;50.082;18.178;2024-03-06T03:05:38;99505.39;;;3.08;87.32
76337;BME280;65157;50.082;18.178;2024-03-06T03:08:06;99509.76;;;3.08;87.16
76337;BME280;65157;50.082;18.178;2024-03-06T03:10:32;99511.52;;;3.07;87.06
76337;BME280;65157;50.082;18.178;2024-03-06T03:12:59;99507.69;;;3.06;87.15
76337;BME280;65157;50.082;18.178;2024-03-06T03:15:25;99507.01;;;3.06;87.23
76337;BME280;65157;50.082;18.178;2024-03-06T03:17:52;99511.89;;;3.05;87.34
76337;BME280;65157;50.082;18.178;2024-03-06T03:20:19;99507.90;;;3.04;87.55
76337;BME280;65157;50.082;18.178;2024-03-06T03:22:45;99506.84;;;3.05;87.40
76337;BME280;65157;50.082;18.178;2024-03-06T03:25:13;99503.35;;;3.05;87.27
76337;BME280;65157;50.082;18.178;2024-03-06T03:27:40;99511.73;;;3.04;87.19
76337;BME280;65157;50.082;18.178;2024-03-06T03:30:08;99516.10;;;3.02;87.23
76337;BME280;65157;50.082;18.178;2024-03-06T03:32:35;99515.23;;;3.00;87.28
76337;BME280;65157;50.082;18.178;2024-03-06T03:35:04;99517.86;;;2.99;87.24
76337;BME280;65157;50.082;18.178;2024-03-06T03:37:31;99517.35;;;2.98;87.19
76337;BME280;65157;50.082;18.178;2024-03-06T03:39:58;99516.13;;;2.97;87.22
76337;BME280;65157;50.082;18.178;2024-03-06T03:42:24;99517.70;;;2.97;87.19
76337;BME280;65157;50.082;18.178;2024-03-06T03:44:51;99522.09;;;2.93;87.49
76337;BME280;65157;50.082;18.178;2024-03-06T03:47:18;99528.86;;;2.96;87.62
76337;BME280;65157;50.082;18.178;2024-03-06T03:49:44;99528.52;;;2.95;87.36
76337;BME280;65157;50.082;18.178;2024-03-06T03:52:12;99527.83;;;2.94;87.38
76337;BME280;65157;50.082;18.178;2024-03-06T03:54:39;99534.98;;;2.95;87.43
76337;BME280;65157;50.082;18.178;2024-03-06T03:57:05;99537.43;;;2.96;87.65
76337;BME280;65157;50.082;18.178;2024-03-06T03:59:32;99539.33;;;2.95;87.63
76337;BME280;65157;50.082;18.178;2024-03-06T04:01:58;99541.59;;;2.96;87.75
76337;BME280;65157;50.082;18.178;2024-03-06T04:04:25;99541.23;;;2.97;87.65
76337;BME280;65157;50.082;18.178;2024-03-06T04:06:52;99544.20;;;2.98;87.55
76337;BME280;65157;50.082;18.178;2024-03-06T04:09:18;99545.60;;;2.99;87.43
76337;BME280;65157;50.082;18.178;2024-03-06T04:11:45;99554.64;;;3.00;87.42
76337;BME280;65157;50.082;18.178;2024-03-06T04:14:11;99553.09;;;2.98;87.53
76337;BME280;65157;50.082;18.178;2024-03-06T04:16:38;99552.77;;;2.94;87.44
76337;BME280;65157;50.082;18.178;2024-03-06T04:19:05;99551.20;;;2.94;87.66
76337;BME280;65157;50.082;18.178;2024-03-06T04:21:31;99550.15;;;2.95;87.56
76337;BME280;65157;50.082;18.178;2024-03-06T04:23:58;99553.27;;;2.97;87.72
76337;BME280;65157;50.082;18.178;2024-03-06T04:26:24;99549.61;;;2.98;87.85
76337;BME280;65157;50.082;18.178;2024-03-06T04:28:51;99552.20;;;3.00;87.77
76337;BME280;65157;50.082;18.178;2024-03-06T04:31:17;99552.37;;;3.02;87.79
76337;BME280;65157;50.082;18.178;2024-03-06T04:33:44;99558.11;;;3.04;87.90
76337;BME280;65157;50.082;18.178;2024-03-06T04:36:10;99559.66;;;3.06;87.95
76337;BME280;65157;50.082;18.178;2024-03-06T04:38:37;99561.38;;;3.08;87.98
76337;BME280;65157;50.082;18.178;2024-03-06T04:41:05;99558.08;;;3.10;87.86
76337;BME280;65157;50.082;18.178;2024-03-06T04:43:32;99555.42;;;3.11;87.99
76337;BME280;65157;50.082;18.178;2024-03-06T04:45:59;99555.61;;;3.13;88.15
76337;BME280;65157;50.082;18.178;2024-03-06T04:48:26;99561.34;;;3.15;88.28
76337;BME280;65157;50.082;18.178;2024-03-06T04:50:52;99564.48;;;3.16;88.19
76337;BME280;65157;50.082;18.178;2024-03-06T04:53:19;99561.14;;;3.18;88.26
76337;BME280;65157;50.082;18.178;2024-03-06T04:55:46;99560.08;;;3.19;88.03
76337;BME280;65157;50.082;18.178;2024-03-06T04:58:13;99555.71;;;3.20;88.04
76337;BME280;65157;50.082;18.178;2024-03-06T05:00:39;99553.80;;;3.21;88.07
76337;BME280;65157;50.082;18.178;2024-03-06T05:03:06;99557.80;;;3.21;88.04
76337;BME280;65157;50.082;18.178;2024-03-06T05:05:32;99566.69;;;3.22;88.27
76337;BME280;65157;50.082;18.178;2024-03-06T05:07:59;99567.05;;;3.22;88.11
76337;BME280;65157;50.082;18.178;2024-03-06T05:10:25;99572.45;;;3.22;88.37
76337;BME280;65157;50.082;18.178;2024-03-06T05:12:52;99571.04;;;3.22;88.59
76337;BME280;65157;50.082;18.178;2024-03-06T05:15:18;99574.37;;;3.21;88.30
76337;BME280;65157;50.082;18.178;2024-03-06T05:17:47;99583.45;;;3.22;88.51
76337;BME280;65157;50.082;18.178;2024-03-06T05:20:13;99582.39;;;3.22;88.44
76337;BME280;65157;50.082;18.178;2024-03-06T05:22:40;99588.67;;;3.22;88.43
76337;BME280;65157;50.082;18.178;2024-03-06T05:25:07;99589.02;;;3.22;88.49
76337;BME280;65157;50.082;18.178;2024-03-06T05:27:34;99589.00;;;3.23;88.39
76337;BME280;65157;50.082;18.178;2024-03-06T05:30:00;99591.10;;;3.23;88.36
76337;BME280;65157;50.082;18.178;2024-03-06T05:32:28;99590.92;;;3.24;88.36
76337;BME280;65157;50.082;18.178;2024-03-06T05:34:54;99594.06;;;3.24;88.28
76337;BME280;65157;50.082;18.178;2024-03-06T05:37:21;99594.42;;;3.23;88.41
76337;BME280;65157;50.082;18.178;2024-03-06T05:39:47;99594.94;;;3.23;88.34
76337;BME280;65157;50.082;18.178;2024-03-06T05:42:14;99596.69;;;3.23;88.13
76337;BME280;65157;50.082;18.178;2024-03-06T05:44:40;99598.27;;;3.21;88.16
76337;BME280;65157;50.082;18.178;2024-03-06T05:47:07;99602.80;;;3.21;88.20
76337;BME280;65157;50.082;18.178;2024-03-06T05:49:34;99601.23;;;3.21;87.96
76337;BME280;65157;50.082;18.178;2024-03-06T05:52:02;99600.36;;;3.20;87.87
76337;BME280;65157;50.082;18.178;2024-03-06T05:54:29;99603.49;;;3.20;87.85
76337;BME280;65157;50.082;18.178;2024-03-06T05:56:55;99607.87;;;3.19;87.81
76337;BME280;65157;50.082;18.178;2024-03-06T05:59:22;99608.23;;;3.18;87.74
76337;BME280;65157;50.082;18.178;2024-03-06T06:01:48;99611.20;;;3.17;87.77
76337;BME280;65157;50.082;18.178;2024-03-06T06:04:15;99609.65;;;3.15;87.70
76337;BME280;65157;50.082;18.178;2024-03-06T06:06:42;99614.36;;;3.14;87.86
76337;BME280;65157;50.082;18.178;2024-03-06T06:09:08;99618.72;;;3.14;87.90
76337;BME280;65157;50.082;18.178;2024-03-06T06:11:35;99618.38;;;3.12;88.06
76337;BME280;65157;50.082;18.178;2024-03-06T06:14:01;99622.73;;;3.11;88.07
76337;BME280;65157;50.082;18.178;2024-03-06T06:16:35;99622.23;;;3.11;88.02
76337;BME280;65157;50.082;18.178;2024-03-06T06:19:01;99626.94;;;3.11;88.00
76337;BME280;65157;50.082;18.178;2024-03-06T06:21:28;99625.52;;;3.11;88.10
76337;BME280;65157;50.082;18.178;2024-03-06T06:23:54;99630.42;;;3.10;88.05
76337;BME280;65157;50.082;18.178;2024-03-06T06:26:21;99633.56;;;3.10;88.11
76337;BME280;65157;50.082;18.178;2024-03-06T06:28:48;99628.34;;;3.08;88.15
76337;BME280;65157;50.082;18.178;2024-03-06T06:31:14;99636.52;;;3.11;87.98
76337;BME280;65157;50.082;18.178;2024-03-06T06:33:41;99633.05;;;3.10;87.83
76337;BME280;65157;50.082;18.178;2024-03-06T06:36:07;99639.51;;;3.10;87.86
76337;BME280;65157;50.082;18.178;2024-03-06T06:38:34;99637.23;;;3.08;87.75
76337;BME280;65157;50.082;18.178;2024-03-06T06:41:01;99638.63;;;3.09;87.79
76337;BME280;65157;50.082;18.178;2024-03-06T06:43:28;99640.70;;;3.11;87.66
76337;BME280;65157;50.082;18.178;2024-03-06T06:45:54;99645.23;;;3.13;87.70
76337;BME280;65157;50.082;18.178;2024-03-06T06:48:21;99638.40;;;3.16;88.00
76337;BME280;65157;50.082;18.178;2024-03-06T06:50:47;99636.98;;;3.21;87.78
76337;BME280;65157;50.082;18.178;2024-03-06T06:53:14;99642.54;;;3.26;87.69
76337;BME280;65157;50.082;18.178;2024-03-06T06:55:40;99643.04;;;3.29;87.58
76337;BME280;65157;50.082;18.178;2024-03-06T06:58:07;99641.11;;;3.32;87.29
76337;BME280;65157;50.082;18.178;2024-03-06T07:00:34;99641.95;;;3.34;87.35
76337;BME280;65157;50.082;18.178;2024-03-06T07:03:00;99644.55;;;3.39;87.14
76337;BME280;65157;50.082;18.178;2024-03-06T07:05:27;99649.41;;;3.42;87.08
76337;BME280;65157;50.082;18.178;2024-03-06T07:07:54;99651.11;;;3.47;87.04
76337;BME280;65157;50.082;18.178;2024-03-06T07:10:21;99652.16;;;3.47;86.63
76337;BME280;65157;50.082;18.178;2024-03-06T07:12:48;99650.39;;;3.49;86.53
76337;BME280;65157;50.082;18.178;2024-03-06T07:15:15;99650.58;;;3.49;86.09
76337;BME280;65157;50.082;18.178;2024-03-06T07:17:42;99652.70;;;3.48;86.12
76337;BME280;65157;50.082;18.178;2024-03-06T07:20:09;99656.69;;;3.49;86.04
76337;BME280;65157;50.082;18.178;2024-03-06T07:22:36;99654.05;;;3.51;86.05
76337;BME280;65157;50.082;18.178;2024-03-06T07:25:03;99655.23;;;3.55;85.99
76337;BME280;65157;50.082;18.178;2024-03-06T07:27:29;99659.21;;;3.59;85.87
76337;BME280;65157;50.082;18.178;2024-03-06T07:29:56;99659.17;;;3.65;85.84
76337;BME280;65157;50.082;18.178;2024-03-06T07:32:22;99660.52;;;3.70;85.71
76337;BME280;65157;50.082;18.178;2024-03-06T07:34:49;99665.54;;;3.77;85.54
76337;BME280;65157;50.082;18.178;2024-03-06T07:37:16;99664.26;;;3.85;85.47
76337;BME280;65157;50.082;18.178;2024-03-06T07:39:42;99671.68;;;3.93;85.40
76337;BME280;65157;50.082;18.178;2024-03-06T07:42:09;99675.98;;;3.99;85.41
76337;BME280;65157;50.082;18.178;2024-03-06T07:44:35;99673.67;;;4.06;85.26
76337;BME280;65157;50.082;18.178;2024-03-06T07:47:02;99672.73;;;4.11;85.03
76337;BME280;65157;50.082;18.178;2024-03-06T07:49:29;99672.73;;;4.13;84.80
76337;BME280;65157;50.082;18.178;2024-03-06T07:51:56;99676.17;;;4.17;84.61
76337;BME280;65157;50.082;18.178;2024-03-06T07:54:22;99681.91;;;4.21;84.62
76337;BME280;65157;50.082;18.178;2024-03-06T07:56:48;99681.30;;;4.28;84.53
76337;BME280;65157;50.082;18.178;2024-03-06T07:59:14;99684.02;;;4.37;84.30
76337;BME280;65157;50.082;18.178;2024-03-06T08:01:39;99683.61;;;4.41;84.05
76337;BME280;65157;50.082;18.178;2024-03-06T08:04:05;99689.50;;;4.47;83.66
76337;BME280;65157;50.082;18.178;2024-03-06T08:06:30;99689.48;;;4.50;83.69
76337;BME280;65157;50.082;18.178;2024-03-06T08:08:56;99689.06;;;4.56;83.67
76337;BME280;65157;50.082;18.178;2024-03-06T08:11:22;99691.27;;;4.61;83.41
76337;BME280;65157;50.082;18.178;2024-03-06T08:13:48;99686.25;;;4.72;83.58
76337;BME280;65157;50.082;18.178;2024-03-06T08:16:14;99684.14;;;4.88;83.87
76337;BME280;65157;50.082;18.178;2024-03-06T08:18:40;99684.11;;;5.04;83.52
76337;BME280;65157;50.082;18.178;2024-03-06T08:21:05;99683.72;;;5.20;83.49
76337;BME280;65157;50.082;18.178;2024-03-06T08:23:31;99680.02;;;5.34;82.97
76337;BME280;65157;50.082;18.178;2024-03-06T08:25:57;99678.29;;;5.44;82.34
76337;BME280;65157;50.082;18.178;2024-03-06T08:28:23;99681.53;;;5.51;81.75
76337;BME280;65157;50.082;18.178;2024-03-06T08:30:48;99684.65;;;5.53;81.15
76337;BME280;65157;50.082;18.178;2024-03-06T08:33:14;99683.09;;;5.51;80.25
76337;BME280;65157;50.082;18.178;2024-03-06T08:35:39;99679.27;;;5.49;80.66
76337;BME280;65157;50.082;18.178;2024-03-06T08:38:05;99678.59;;;5.59;80.58
76337;BME280;65157;50.082;18.178;2024-03-06T08:40:31;99681.21;;;5.71;80.52
76337;BME280;65157;50.082;18.178;2024-03-06T08:42:56;99677.23;;;5.79;79.83
76337;BME280;65157;50.082;18.178;2024-03-06T08:45:22;99677.81;;;5.89;79.47
76337;BME280;65157;50.082;18.178;2024-03-06T08:47:48;99674.98;;;6.00;79.45
76337;BME280;65157;50.082;18.178;2024-03-06T08:50:14;99669.62;;;6.07;78.80
76337;BME280;65157;50.082;18.178;2024-03-06T08:52:40;99672.83;;;6.23;78.73
76337;BME280;65157;50.082;18.178;2024-03-06T08:55:06;99675.54;;;6.39;78.77
76337;BME280;65157;50.082;18.178;2024-03-06T08:57:35;99672.37;;;6.57;78.08
76337;BME280;65157;50.082;18.178;2024-03-06T09:00:02;99673.58;;;6.75;77.76
76337;BME280;65157;50.082;18.178;2024-03-06T09:02:28;99674.04;;;6.96;77.53
76337;BME280;65157;50.082;18.178;2024-03-06T09:04:54;99673.46;;;7.15;76.71
76337;BME280;65157;50.082;18.178;2024-03-06T09:07:20;99670.20;;;7.28;76.14
76337;BME280;65157;50.082;18.178;2024-03-06T09:09:46;99673.51;;;7.44;75.62
76337;BME280;65157;50.082;18.178;2024-03-06T09:12:11;99673.59;;;7.63;75.12
76337;BME280;65157;50.082;18.178;2024-03-06T09:14:38;99670.89;;;7.81;74.40
76337;BME280;65157;50.082;18.178;2024-03-06T09:17:04;99666.99;;;7.89;73.83
76337;BME280;65157;50.082;18.178;2024-03-06T09:19:31;99662.39;;;8.04;73.67
76337;BME280;65157;50.082;18.178;2024-03-06T09:21:57;99661.89;;;8.24;72.93
76337;BME280;65157;50.082;18.178;2024-03-06T09:24:24;99658.98;;;8.41;72.46
76337;BME280;65157;50.082;18.178;2024-03-06T09:26:50;99657.63;;;8.59;72.44
76337;BME280;65157;50.082;18.178;2024-03-06T09:29:16;99655.89;;;8.77;70.55
76337;BME280;65157;50.082;18.178;2024-03-06T09:31:43;99655.98;;;8.92;71.13
76337;BME280;65157;50.082;18.178;2024-03-06T09:34:08;99658.83;;;9.14;69.98
76337;BME280;65157;50.082;18.178;2024-03-06T09:36:34;99657.91;;;9.28;68.55
76337;BME280;65157;50.082;18.178;2024-03-06T09:39:00;99658.92;;;9.46;68.66
76337;BME280;65157;50.082;18.178;2024-03-06T09:41:26;99663.41;;;9.60;67.52
76337;BME280;65157;50.082;18.178;2024-03-06T09:43:51;99659.11;;;9.68;67.39
76337;BME280;65157;50.082;18.178;2024-03-06T09:46:17;99655.50;;;9.81;65.65
76337;BME280;65157;50.082;18.178;2024-03-06T09:48:47;99652.63;;;9.99;64.65
76337;BME280;65157;50.082;18.178;2024-03-06T09:51:14;99644.27;;;10.06;62.59
76337;BME280;65157;50.082;18.178;2024-03-06T09:53:41;99656.11;;;9.95;63.38
76337;BME280;65157;50.082;18.178;2024-03-06T09:56:07;99658.98;;;9.88;63.81
76337;BME280;65157;50.082;18.178;2024-03-06T09:58:35;99661.21;;;9.79;63.59
76337;BME280;65157;50.082;18.178;2024-03-06T10:01:01;99666.31;;;9.74;63.90
76337;BME280;65157;50.082;18.178;2024-03-06T10:03:27;99665.31;;;9.67;63.48
76337;BME280;65157;50.082;18.178;2024-03-06T10:05:53;99667.52;;;9.53;62.55
76337;BME280;65157;50.082;18.178;2024-03-06T10:08:19;99668.93;;;9.36;63.01
76337;BME280;65157;50.082;18.178;2024-03-06T10:10:46;99666.33;;;9.23;62.96
76337;BME280;65157;50.082;18.178;2024-03-06T10:13:12;99663.73;;;9.09;62.61
76337;BME280;65157;50.082;18.178;2024-03-06T10:15:38;99666.13;;;9.06;62.87
76337;BME280;65157;50.082;18.178;2024-03-06T10:18:14;99665.31;;;9.09;63.15
76337;BME280;65157;50.082;18.178;2024-03-06T10:20:41;99659.45;;;9.06;61.80
76337;BME280;65157;50.082;18.178;2024-03-06T10:23:07;99659.36;;;9.02;62.42
76337;BME280;65157;50.082;18.178;2024-03-06T10:25:33;99660.20;;;9.04;62.10
76337;BME280;65157;50.082;18.178;2024-03-06T10:28:09;99660.74;;;9.03;62.13
76337;BME280;65157;50.082;18.178;2024-03-06T10:30:37;99661.68;;;9.07;61.65
76337;BME280;65157;50.082;18.178;2024-03-06T10:33:06;99660.38;;;9.04;60.48
76337;BME280;65157;50.082;18.178;2024-03-06T10:35:35;99662.61;;;9.00;61.39
76337;BME280;65157;50.082;18.178;2024-03-06T10:38:01;99664.20;;;9.00;61.53
76337;BME280;65157;50.082;18.178;2024-03-06T10:40:27;99664.23;;;8.99;61.38
76337;BME280;65157;50.082;18.178;2024-03-06T10:42:56;99666.05;;;9.08;61.05
76337;BME280;65157;50.082;18.178;2024-03-06T10:45:25;99661.64;;;9.15;60.74
76337;BME280;65157;50.082;18.178;2024-03-06T10:47:57;99658.12;;;9.26;60.92
76337;BME280;65157;50.082;18.178;2024-03-06T10:50:23;99660.98;;;9.42;61.06
76337;BME280;65157;50.082;18.178;2024-03-06T10:52:53;99658.41;;;9.50;60.54
76337;BME280;65157;50.082;18.178;2024-03-06T10:55:19;99659.42;;;9.52;60.30
76337;BME280;65157;50.082;18.178;2024-03-06T10:57:46;99657.77;;;9.60;60.67
76337;BME280;65157;50.082;18.178;2024-03-06T11:00:14;99653.09;;;9.69;60.66
76337;BME280;65157;50.082;18.178;2024-03-06T11:02:40;99659.21;;;9.75;60.58
76337;BME280;65157;50.082;18.178;2024-03-06T11:05:07;99652.86;;;9.70;59.66
76337;BME280;65157;50.082;18.178;2024-03-06T11:07:34;99650.95;;;9.75;60.38
76337;BME280;65157;50.082;18.178;2024-03-06T11:09:59;99653.13;;;9.84;59.95
76337;BME280;65157;50.082;18.178;2024-03-06T11:12:36;99645.96;;;9.92;60.26
76337;BME280;65157;50.082;18.178;2024-03-06T11:15:15;99647.25;;;10.01;59.73
76337;BME280;65157;50.082;18.178;2024-03-06T11:17:41;99639.98;;;10.02;59.29
76337;BME280;65157;50.082;18.178;2024-03-06T11:28:16;99630.88;;;9.74;58.34
76337;BME280;65157;50.082;18.178;2024-03-06T11:30:46;99632.68;;;9.68;58.75
76337;BME280;65157;50.082;18.178;2024-03-06T11:33:14;99632.97;;;9.64;59.35
76337;BME280;65157;50.082;18.178;2024-03-06T11:35:40;99632.36;;;9.61;59.26
76337;BME280;65157;50.082;18.178;2024-03-06T11:38:06;99634.46;;;9.56;59.59
76337;BME280;65157;50.082;18.178;2024-03-06T11:40:32;99635.19;;;9.55;59.83
76337;BME280;65157;50.082;18.178;2024-03-06T11:43:24;99633.19;;;9.51;59.02
76337;BME280;65157;50.082;18.178;2024-03-06T11:45:53;99632.17;;;9.39;59.68
76337;BME280;65157;50.082;18.178;2024-03-06T11:48:19;99636.20;;;9.40;59.74
76337;BME280;65157;50.082;18.178;2024-03-06T11:50:45;99632.64;;;9.36;60.31
76337;BME280;65157;50.082;18.178;2024-03-06T11:53:10;99636.73;;;9.34;60.28
76337;BME280;65157;50.082;18.178;2024-03-06T11:55:36;99635.81;;;9.30;60.12
76337;BME280;65157;50.082;18.178;2024-03-06T11:58:02;99636.59;;;9.22;59.95
76337;BME280;65157;50.082;18.178;2024-03-06T12:00:32;99639.29;;;9.15;60.48
76337;BME280;65157;50.082;18.178;2024-03-06T12:02:57;99636.73;;;9.05;60.21
76337;BME280;65157;50.082;18.178;2024-03-06T12:05:23;99638.20;;;8.98;59.97
76337;BME280;65157;50.082;18.178;2024-03-06T12:07:50;99634.52;;;8.85;60.06
76337;BME280;65157;50.082;18.178;2024-03-06T12:10:16;99636.61;;;8.80;60.52
76337;BME280;65157;50.082;18.178;2024-03-06T12:12:42;99636.91;;;8.76;60.73
76337;BME280;65157;50.082;18.178;2024-03-06T12:15:11;99635.48;;;8.71;60.61
76337;BME280;65157;50.082;18.178;2024-03-06T12:17:45;99633.66;;;8.66;61.12
76337;BME280;65157;50.082;18.178;2024-03-06T12:20:12;99634.23;;;8.65;61.09
76337;BME280;65157;50.082;18.178;2024-03-06T12:22:44;99633.58;;;8.64;61.45
76337;BME280;65157;50.082;18.178;2024-03-06T12:25:10;99630.81;;;8.61;61.50
76337;BME280;65157;50.082;18.178;2024-03-06T12:27:35;99632.30;;;8.58;61.48
76337;BME280;65157;50.082;18.178;2024-03-06T12:30:01;99632.61;;;8.60;61.55
76337;BME280;65157;50.082;18.178;2024-03-06T12:32:27;99630.40;;;8.58;61.61
76337;BME280;65157;50.082;18.178;2024-03-06T12:34:56;99633.50;;;8.54;61.52
76337;BME280;65157;50.082;18.178;2024-03-06T12:37:31;99630.23;;;8.51;61.78
76337;BME280;65157;50.082;18.178;2024-03-06T12:39:57;99630.98;;;8.49;62.08
76337;BME280;65157;50.082;18.178;2024-03-06T12:42:23;99632.13;;;8.46;62.10
76337;BME280;65157;50.082;18.178;2024-03-06T12:44:48;99628.17;;;8.42;62.23
76337;BME280;65157;50.082;18.178;2024-03-06T12:47:14;99626.69;;;8.39;62.26
76337;BME280;65157;50.082;18.178;2024-03-06T12:49:40;99626.95;;;8.36;61.95
76337;BME280;65157;50.082;18.178;2024-03-06T12:52:05;99629.98;;;8.27;62.39
76337;BME280;65157;50.082;18.178;2024-03-06T12:54:31;99637.47;;;8.22;62.34
76337;BME280;65157;50.082;18.178;2024-03-06T12:56:57;99634.25;;;8.18;62.46
76337;BME280;65157;50.082;18.178;2024-03-06T12:59:23;99639.23;;;8.16;62.67
76337;BME280;65157;50.082;18.178;2024-03-06T13:01:48;99637.79;;;8.11;62.78
76337;BME280;65157;50.082;18.178;2024-03-06T13:04:14;99637.02;;;8.06;62.86
76337;BME280;65157;50.082;18.178;2024-03-06T13:06:40;99636.98;;;8.01;62.48